sensor_id;sensor_type;location;lat;lon;timestamp;pressure;altitude;pressure_sealevel;temperature;humidity
3082;BME280;1551;51.046;7.010;2024-03-08T00:02:15;101071.50;;;5.36;nan
3082;BME280;1551;51.046;7.010;2024-03-08T00:05:06;101068.03;;;5.33;nan
3082;BME280;1551;51.046;7.010;2024-03-08T00:07:57;101067.22;;;5.34;nan
3082;BME280;1551;51.046;7.010;2024-03-08T00:10:46;101064.53;;;5.26;nan
3082;BME280;1551;51.046;7.010;2024-03-08T00:13:35;101070.47;;;5.27;nan
3082;BME280;1551;51.046;7.010;2024-03-08T00:16:23;101068.69;;;5.23;nan
3082;BME280;1551;51.046;7.010;2024-03-08T00:19:12;101062.72;;;5.21;nan
3082;BME280;1551;51.046;7.010;2024-03-08T00:22:01;101051.75;;;5.20;nan
3082;BME280;1551;51.046;7.010;2024-03-08T00:24:50;101063.59;;;5.21;nan
3082;BME280;1551;51.046;7.010;2024-03-08T00:27:39;101050.84;;;5.18;nan
3082;BME280;1551;51.046;7.010;2024-03-08T00:30:29;101053.28;;;5.12;nan
3082;BME280;1551;51.046;7.010;2024-03-08T00:33:19;101045.53;;;5.05;nan
3082;BME280;1551;51.046;7.010;2024-03-08T00:36:08;101037.78;;;4.96;nan
3082;BME280;1551;51.046;7.010;2024-03-08T00:38:57;101041.97;;;4.94;nan
3082;BME280;1551;51.046;7.010;2024-03-08T00:41:47;101030.16;;;4.94;nan
3082;BME280;1551;51.046;7.010;2024-03-08T00:44:36;101032.63;;;4.91;nan
3082;BME280;1551;51.046;7.010;2024-03-08T00:47:24;101025.00;;;4.90;nan
3082;BME280;1551;51.046;7.010;2024-03-08T00:50:13;101024.13;;;4.88;nan
3082;BME280;1551;51.046;7.010;2024-03-08T00:53:02;101021.53;;;4.86;nan
3082;BME280;1551;51.046;7.010;2024-03-08T00:55:53;101013.91;;;4.84;nan
3082;BME280;1551;51.046;7.010;2024-03-08T00:58:43;101010.53;;;4.85;nan
3082;BME280;1551;51.046;7.010;2024-03-08T01:01:33;101024.81;;;4.80;nan
3082;BME280;1551;51.046;7.010;2024-03-08T01:04:22;101015.50;;;4.81;nan
3082;BME280;1551;51.046;7.010;2024-03-08T01:07:11;101008.72;;;4.78;nan
3082;BME280;1551;51.046;7.010;2024-03-08T01:10:04;101011.22;;;4.77;nan
3082;BME280;1551;51.046;7.010;2024-03-08T01:12:53;101003.44;;;4.66;nan
3082;BME280;1551;51.046;7.010;2024-03-08T01:15:43;101006.69;;;4.59;nan
3082;BME280;1551;51.046;7.010;2024-03-08T01:18:32;101005.75;;;4.56;nan
3082;BME280;1551;51.046;7.010;2024-03-08T01:21:21;100987.06;;;4.51;nan
3082;BME280;1551;51.046;7.010;2024-03-08T01:24:11;100995.69;;;4.59;nan
3082;BME280;1551;51.046;7.010;2024-03-08T01:27:00;100993.16;;;4.60;nan
3082;BME280;1551;51.046;7.010;2024-03-08T01:29:49;100983.81;;;4.56;nan
3082;BME280;1551;51.046;7.010;2024-03-08T01:32:37;100986.41;;;4.59;nan
3082;BME280;1551;51.046;7.010;2024-03-08T01:35:26;100978.84;;;4.62;nan
3082;BME280;1551;51.046;7.010;2024-03-08T01:38:16;100971.22;;;4.62;nan
3082;BME280;1551;51.046;7.010;2024-03-08T01:41:05;100976.38;;;4.65;nan
3082;BME280;1551;51.046;7.010;2024-03-08T01:43:54;100967.81;;;4.60;nan
3082;BME280;1551;51.046;7.010;2024-03-08T01:46:44;100956.81;;;4.58;nan
3082;BME280;1551;51.046;7.010;2024-03-08T01:49:33;100961.06;;;4.61;nan
3082;BME280;1551;51.046;7.010;2024-03-08T01:52:22;100955.16;;;4.62;nan
3082;BME280;1551;51.046;7.010;2024-03-08T01:55:12;100956.91;;;4.64;nan
3082;BME280;1551;51.046;7.010;2024-03-08T01:58:05;100948.41;;;4.62;nan
3082;BME280;1551;51.046;7.010;2024-03-08T02:00:55;100937.38;;;4.59;nan
3082;BME280;1551;51.046;7.010;2024-03-08T02:03:45;100940.94;;;4.68;nan
3082;BME280;1551;51.046;7.010;2024-03-08T02:06:35;100930.75;;;4.65;nan
3082;BME280;1551;51.046;7.010;2024-03-08T02:09:24;100923.06;;;4.61;nan
3082;BME280;1551;51.046;7.010;2024-03-08T02:12:16;100937.41;;;4.60;nan
3082;BME280;1551;51.046;7.010;2024-03-08T02:15:05;100934.00;;;4.60;nan
3082;BME280;1551;51.046;7.010;2024-03-08T02:17:57;100918.81;;;4.60;nan
3082;BME280;1551;51.046;7.010;2024-03-08T02:20:51;100922.19;;;4.60;nan
3082;BME280;1551;51.046;7.010;2024-03-08T02:23:40;100923.06;;;4.62;nan
3082;BME280;1551;51.046;7.010;2024-03-08T02:26:29;100911.13;;;4.55;nan
3082;BME280;1551;51.046;7.010;2024-03-08T02:29:18;100918.88;;;4.63;nan
3082;BME280;1551;51.046;7.010;2024-03-08T02:32:08;100911.19;;;4.60;nan
3082;BME280;1551;51.046;7.010;2024-03-08T02:34:57;100915.44;;;4.61;nan
3082;BME280;1551;51.046;7.010;2024-03-08T02:37:48;100912.03;;;4.59;nan
3082;BME280;1551;51.046;7.010;2024-03-08T02:40:37;100910.31;;;4.58;nan
3082;BME280;1551;51.046;7.010;2024-03-08T02:43:26;100911.09;;;4.52;nan
3082;BME280;1551;51.046;7.010;2024-03-08T02:46:16;100902.63;;;4.52;nan
3082;BME280;1551;51.046;7.010;2024-03-08T02:49:05;100900.09;;;4.53;nan
3082;BME280;1551;51.046;7.010;2024-03-08T02:51:56;100896.72;;;4.53;nan
3082;BME280;1551;51.046;7.010;2024-03-08T02:54:45;100895.88;;;4.52;nan
3082;BME280;1551;51.046;7.010;2024-03-08T02:57:36;100889.91;;;4.50;nan
3082;BME280;1551;51.046;7.010;2024-03-08T03:00:25;100896.69;;;4.50;nan
3082;BME280;1551;51.046;7.010;2024-03-08T03:03:15;100889.88;;;4.49;nan
3082;BME280;1551;51.046;7.010;2024-03-08T03:06:05;100890.72;;;4.48;nan
3082;BME280;1551;51.046;7.010;2024-03-08T03:08:56;100879.69;;;4.46;nan
3082;BME280;1551;51.046;7.010;2024-03-08T03:11:46;100881.44;;;4.48;nan
3082;BME280;1551;51.046;7.010;2024-03-08T03:14:35;100873.81;;;4.48;nan
3082;BME280;1551;51.046;7.010;2024-03-08T03:17:27;100873.81;;;4.48;nan
3082;BME280;1551;51.046;7.010;2024-03-08T03:20:17;100871.25;;;4.45;nan
3082;BME280;1551;51.046;7.010;2024-03-08T03:23:15;100872.13;;;4.47;nan
3082;BME280;1551;51.046;7.010;2024-03-08T03:26:09;100867.06;;;4.47;nan
3082;BME280;1551;51.046;7.010;2024-03-08T03:29:02;100873.00;;;4.48;nan
3082;BME280;1551;51.046;7.010;2024-03-08T03:31:51;100870.41;;;4.46;nan
3082;BME280;1551;51.046;7.010;2024-03-08T03:34:41;100873.00;;;4.48;nan
3082;BME280;1551;51.046;7.010;2024-03-08T03:37:32;100875.47;;;4.46;nan
3082;BME280;1551;51.046;7.010;2024-03-08T03:40:22;100864.47;;;4.43;nan
3082;BME280;1551;51.046;7.010;2024-03-08T03:43:14;100867.81;;;4.43;nan
3082;BME280;1551;51.046;7.010;2024-03-08T03:46:06;100857.69;;;4.43;nan
3082;BME280;1551;51.046;7.010;2024-03-08T03:48:55;100859.38;;;4.43;nan
3082;BME280;1551;51.046;7.010;2024-03-08T03:51:44;100861.13;;;4.45;nan
3082;BME280;1551;51.046;7.010;2024-03-08T03:54:33;100861.13;;;4.47;nan
3082;BME280;1551;51.046;7.010;2024-03-08T03:57:22;100856.94;;;4.47;nan
3082;BME280;1551;51.046;7.010;2024-03-08T04:00:12;100848.47;;;4.48;nan
3082;BME280;1551;51.046;7.010;2024-03-08T04:03:04;100856.09;;;4.48;nan
3082;BME280;1551;51.046;7.010;2024-03-08T04:05:53;100850.13;;;4.45;nan
3082;BME280;1551;51.046;7.010;2024-03-08T04:08:42;100847.53;;;4.42;nan
3082;BME280;1551;51.046;7.010;2024-03-08T04:11:31;100846.53;;;4.32;nan
3082;BME280;1551;51.046;7.010;2024-03-08T04:14:20;100860.69;;;4.23;nan
3082;BME280;1551;51.046;7.010;2024-03-08T04:17:09;100848.91;;;4.23;nan
3082;BME280;1551;51.046;7.010;2024-03-08T04:20:00;100852.34;;;4.27;nan
3082;BME280;1551;51.046;7.010;2024-03-08T04:22:49;100844.84;;;4.31;nan
3082;BME280;1551;51.046;7.010;2024-03-08T04:25:38;100844.88;;;4.34;nan
3082;BME280;1551;51.046;7.010;2024-03-08T04:28:27;100843.25;;;4.38;nan
3082;BME280;1551;51.046;7.010;2024-03-08T04:31:16;100839.06;;;4.41;nan
3082;BME280;1551;51.046;7.010;2024-03-08T04:34:05;100841.59;;;4.41;nan
3082;BME280;1551;51.046;7.010;2024-03-08T04:36:54;100844.13;;;4.40;nan
3082;BME280;1551;51.046;7.010;2024-03-08T04:39:43;100828.94;;;4.41;nan
3082;BME280;1551;51.046;7.010;2024-03-08T04:42:32;100833.19;;;4.42;nan
3082;BME280;1551;51.046;7.010;2024-03-08T04:45:22;100828.97;;;4.43;nan
3082;BME280;1551;51.046;7.010;2024-03-08T04:48:11;100817.97;;;4.41;nan
3082;BME280;1551;51.046;7.010;2024-03-08T04:51:00;100819.66;;;4.42;nan
3082;BME280;1551;51.046;7.010;2024-03-08T04:53:50;100825.66;;;4.45;nan
3082;BME280;1551;51.046;7.010;2024-03-08T04:56:39;100819.72;;;4.45;nan
3082;BME280;1551;51.046;7.010;2024-03-08T04:59:28;100812.97;;;4.45;nan
3082;BME280;1551;51.046;7.010;2024-03-08T05:02:17;100812.97;;;4.45;nan
3082;BME280;1551;51.046;7.010;2024-03-08T05:05:07;100807.06;;;4.45;nan
3082;BME280;1551;51.046;7.010;2024-03-08T05:07:58;100800.34;;;4.48;nan
3082;BME280;1551;51.046;7.010;2024-03-08T05:10:47;100802.91;;;4.50;nan
3082;BME280;1551;51.046;7.010;2024-03-08T05:13:36;100796.16;;;4.50;nan
3082;BME280;1551;51.046;7.010;2024-03-08T05:16:26;100808.81;;;4.50;nan
3082;BME280;1551;51.046;7.010;2024-03-08T05:19:16;100798.72;;;4.52;nan
3082;BME280;1551;51.046;7.010;2024-03-08T05:22:07;100791.97;;;4.52;nan
3082;BME280;1551;51.046;7.010;2024-03-08T05:24:57;100789.41;;;4.51;nan
3082;BME280;1551;51.046;7.010;2024-03-08T05:27:46;100786.88;;;4.51;nan
3082;BME280;1551;51.046;7.010;2024-03-08T05:30:38;100787.72;;;4.51;nan
3082;BME280;1551;51.046;7.010;2024-03-08T05:33:27;100788.53;;;4.50;nan
3082;BME280;1551;51.046;7.010;2024-03-08T05:36:16;100786.00;;;4.50;nan
3082;BME280;1551;51.046;7.010;2024-03-08T05:39:08;100783.47;;;4.49;nan
3082;BME280;1551;51.046;7.010;2024-03-08T05:41:57;100781.78;;;4.49;nan
3082;BME280;1551;51.046;7.010;2024-03-08T05:44:46;100781.78;;;4.49;nan
3082;BME280;1551;51.046;7.010;2024-03-08T05:47:35;100774.19;;;4.49;nan
3082;BME280;1551;51.046;7.010;2024-03-08T05:50:24;100780.91;;;4.47;nan
3082;BME280;1551;51.046;7.010;2024-03-08T05:53:13;100769.09;;;4.48;nan
3082;BME280;1551;51.046;7.010;2024-03-08T05:56:04;100775.00;;;4.48;nan
3082;BME280;1551;51.046;7.010;2024-03-08T05:58:53;100767.38;;;4.47;nan
3082;BME280;1551;51.046;7.010;2024-03-08T06:01:42;100773.31;;;4.49;nan
3082;BME280;1551;51.046;7.010;2024-03-08T06:04:31;100768.28;;;4.50;nan
3082;BME280;1551;51.046;7.010;2024-03-08T06:07:20;100769.19;;;4.52;nan
3082;BME280;1551;51.046;7.010;2024-03-08T06:10:10;100778.41;;;4.50;nan
3082;BME280;1551;51.046;7.010;2024-03-08T06:12:59;100770.78;;;4.49;nan
3082;BME280;1551;51.046;7.010;2024-03-08T06:15:50;100777.59;;;4.50;nan
3082;BME280;1551;51.046;7.010;2024-03-08T06:18:39;100769.13;;;4.51;nan
3082;BME280;1551;51.046;7.010;2024-03-08T06:21:28;100772.53;;;4.53;nan
3082;BME280;1551;51.046;7.010;2024-03-08T06:24:17;100772.59;;;4.57;nan
3082;BME280;1551;51.046;7.010;2024-03-08T06:27:06;100771.06;;;4.67;nan
3082;BME280;1551;51.046;7.010;2024-03-08T06:29:58;100772.97;;;4.81;nan
3082;BME280;1551;51.046;7.010;2024-03-08T06:32:47;100772.28;;;4.93;nan
3082;BME280;1551;51.046;7.010;2024-03-08T06:35:36;100773.28;;;5.04;nan
3082;BME280;1551;51.046;7.010;2024-03-08T06:38:26;100752.25;;;5.11;nan
3082;BME280;1551;51.046;7.010;2024-03-08T06:41:16;100770.28;;;5.31;nan
3082;BME280;1551;51.046;7.010;2024-03-08T06:44:05;100763.56;;;5.36;nan
3082;BME280;1551;51.046;7.010;2024-03-08T06:46:56;100761.97;;;5.44;nan
3082;BME280;1551;51.046;7.010;2024-03-08T06:49:45;100765.38;;;5.46;nan
3082;BME280;1551;51.046;7.010;2024-03-08T06:52:35;100761.94;;;5.42;nan
3082;BME280;1551;51.046;7.010;2024-03-08T06:55:24;100769.50;;;5.39;nan
3082;BME280;1551;51.046;7.010;2024-03-08T06:58:13;100763.63;;;5.42;nan
3082;BME280;1551;51.046;7.010;2024-03-08T07:01:01;100762.81;;;5.44;nan
3082;BME280;1551;51.046;7.010;2024-03-08T07:03:52;100761.94;;;5.42;nan
3082;BME280;1551;51.046;7.010;2024-03-08T07:06:41;100759.47;;;5.47;nan
3082;BME280;1551;51.046;7.010;2024-03-08T07:09:30;100749.34;;;5.50;nan
3082;BME280;1551;51.046;7.010;2024-03-08T07:12:19;100762.03;;;5.48;nan
3082;BME280;1551;51.046;7.010;2024-03-08T07:15:09;100758.66;;;5.49;nan
3082;BME280;1551;51.046;7.010;2024-03-08T07:18:05;100742.59;;;5.53;nan
3082;BME280;1551;51.046;7.010;2024-03-08T07:20:54;100746.09;;;5.62;nan
3082;BME280;1551;51.046;7.010;2024-03-08T07:23:43;100745.28;;;5.64;nan
3082;BME280;1551;51.046;7.010;2024-03-08T07:26:45;100740.25;;;5.70;nan
3082;BME280;1551;51.046;7.010;2024-03-08T07:29:38;100738.63;;;5.75;nan
3082;BME280;1551;51.046;7.010;2024-03-08T07:32:27;100731.97;;;5.86;nan
3082;BME280;1551;51.046;7.010;2024-03-08T07:35:18;100732.91;;;5.96;nan
3082;BME280;1551;51.046;7.010;2024-03-08T07:38:08;100740.59;;;6.00;nan
3082;BME280;1551;51.046;7.010;2024-03-08T07:40:58;100721.16;;;6.02;nan
3082;BME280;1551;51.046;7.010;2024-03-08T07:43:48;100722.00;;;6.04;nan
3082;BME280;1551;51.046;7.010;2024-03-08T07:46:37;100719.53;;;6.15;nan
3082;BME280;1551;51.046;7.010;2024-03-08T07:49:27;100726.41;;;6.27;nan
3082;BME280;1551;51.046;7.010;2024-03-08T07:52:15;100713.84;;;6.42;nan
3082;BME280;1551;51.046;7.010;2024-03-08T07:55:07;100716.50;;;6.66;nan
3082;BME280;1551;51.046;7.010;2024-03-08T07:57:56;100714.09;;;6.87;nan
3082;BME280;1551;51.046;7.010;2024-03-08T08:00:45;100710.81;;;7.11;nan
3082;BME280;1551;51.046;7.010;2024-03-08T08:03:35;100702.44;;;7.34;nan
3082;BME280;1551;51.046;7.010;2024-03-08T08:06:27;100702.53;;;7.71;nan
3082;BME280;1551;51.046;7.010;2024-03-08T08:09:16;100702.53;;;7.95;nan
3082;BME280;1551;51.046;7.010;2024-03-08T08:12:16;100699.16;;;8.20;nan
3082;BME280;1551;51.046;7.010;2024-03-08T08:15:06;100683.00;;;8.42;nan
3082;BME280;1551;51.046;7.010;2024-03-08T08:17:55;100684.69;;;8.67;nan
3082;BME280;1551;51.046;7.010;2024-03-08T08:20:44;100687.16;;;8.97;nan
3082;BME280;1551;51.046;7.010;2024-03-08T08:23:33;100675.19;;;9.09;nan
3082;BME280;1551;51.046;7.010;2024-03-08T08:26:22;100679.41;;;9.13;nan
3082;BME280;1551;51.046;7.010;2024-03-08T08:29:11;100684.38;;;9.38;nan
3082;BME280;1551;51.046;7.010;2024-03-08T08:32:00;100671.63;;;9.38;nan
3082;BME280;1551;51.046;7.010;2024-03-08T08:34:49;100674.94;;;9.52;nan
3082;BME280;1551;51.046;7.010;2024-03-08T08:37:41;100665.47;;;9.69;nan
3082;BME280;1551;51.046;7.010;2024-03-08T08:40:30;100658.66;;;9.70;nan
3082;BME280;1551;51.046;7.010;2024-03-08T08:43:20;100658.56;;;9.81;nan
3082;BME280;1551;51.046;7.010;2024-03-08T08:46:12;100655.81;;;10.08;nan
3082;BME280;1551;51.046;7.010;2024-03-08T08:49:05;100655.69;;;10.24;nan
3082;BME280;1551;51.046;7.010;2024-03-08T08:51:55;100642.84;;;10.29;nan
3082;BME280;1551;51.046;7.010;2024-03-08T08:54:44;100646.09;;;10.45;nan
3082;BME280;1551;51.046;7.010;2024-03-08T08:57:33;100639.22;;;10.48;nan
3082;BME280;1551;51.046;7.010;2024-03-08T09:00:22;100644.94;;;10.73;nan
3082;BME280;1551;51.046;7.010;2024-03-08T09:03:15;100636.13;;;10.95;nan
3082;BME280;1551;51.046;7.010;2024-03-08T09:06:06;100641.66;;;11.29;nan
3082;BME280;1551;51.046;7.010;2024-03-08T09:08:58;100647.97;;;11.64;nan
3082;BME280;1551;51.046;7.010;2024-03-08T09:11:47;100632.13;;;11.38;nan
3082;BME280;1551;51.046;7.010;2024-03-08T09:14:36;100633.41;;;11.69;nan
3082;BME280;1551;51.046;7.010;2024-03-08T09:17:25;100631.31;;;11.91;nan
3082;BME280;1551;51.046;7.010;2024-03-08T09:20:14;100621.88;;;11.95;nan
3082;BME280;1551;51.046;7.010;2024-03-08T09:23:03;100626.06;;;12.00;nan
3082;BME280;1551;51.046;7.010;2024-03-08T09:25:52;100625.44;;;12.35;nan
3082;BME280;1551;51.046;7.010;2024-03-08T09:28:41;100622.28;;;12.65;nan
3082;BME280;1551;51.046;7.010;2024-03-08T09:31:30;100614.09;;;12.89;nan
3082;BME280;1551;51.046;7.010;2024-03-08T09:34:19;100619.81;;;13.02;nan
3082;BME280;1551;51.046;7.010;2024-03-08T09:37:08;100625.78;;;13.05;nan
3082;BME280;1551;51.046;7.010;2024-03-08T09:39:57;100615.13;;;13.59;nan
3082;BME280;1551;51.046;7.010;2024-03-08T09:42:48;100607.72;;;13.47;nan
3082;BME280;1551;51.046;7.010;2024-03-08T09:45:37;100600.78;;;13.84;nan
3082;BME280;1551;51.046;7.010;2024-03-08T09:48:30;100595.00;;;13.76;nan
3082;BME280;1551;51.046;7.010;2024-03-08T09:51:27;100582.09;;;14.11;nan
3082;BME280;1551;51.046;7.010;2024-03-08T09:54:17;100583.75;;;14.46;nan
3082;BME280;1551;51.046;7.010;2024-03-08T09:57:10;100589.31;;;14.62;nan
3082;BME280;1551;51.046;7.010;2024-03-08T09:59:59;100581.16;;;14.77;nan
3082;BME280;1551;51.046;7.010;2024-03-08T10:02:49;100575.53;;;15.21;nan
3082;BME280;1551;51.046;7.010;2024-03-08T10:05:39;100579.38;;;15.88;nan
3082;BME280;1551;51.046;7.010;2024-03-08T10:08:28;100579.47;;;15.85;nan
3082;BME280;1551;51.046;7.010;2024-03-08T10:11:20;100566.50;;;16.13;nan
3082;BME280;1551;51.046;7.010;2024-03-08T10:14:09;100560.94;;;16.23;nan
3082;BME280;1551;51.046;7.010;2024-03-08T10:16:59;100564.19;;;16.53;nan
3082;BME280;1551;51.046;7.010;2024-03-08T10:19:50;100550.19;;;16.82;nan
3082;BME280;1551;51.046;7.010;2024-03-08T10:22:41;100557.94;;;17.27;nan
3082;BME280;1551;51.046;7.010;2024-03-08T10:25:33;100521.81;;;18.26;nan
3082;BME280;1551;51.046;7.010;2024-03-08T10:28:22;100547.03;;;18.80;nan
3082;BME280;1551;51.046;7.010;2024-03-08T10:31:14;100536.50;;;18.83;nan
3082;BME280;1551;51.046;7.010;2024-03-08T10:34:03;100541.13;;;19.31;nan
3082;BME280;1551;51.046;7.010;2024-03-08T10:36:57;100534.31;;;18.92;nan
3082;BME280;1551;51.046;7.010;2024-03-08T10:40:02;100534.59;;;19.05;nan
3082;BME280;1551;51.046;7.010;2024-03-08T10:42:59;100528.13;;;19.13;nan
3082;BME280;1551;51.046;7.010;2024-03-08T10:45:48;100518.28;;;19.39;nan
3082;BME280;1551;51.046;7.010;2024-03-08T10:48:43;100515.75;;;20.21;nan
3082;BME280;1551;51.046;7.010;2024-03-08T10:51:33;100513.22;;;20.04;nan
3082;BME280;1551;51.046;7.010;2024-03-08T10:54:25;100507.59;;;20.29;nan
3082;BME280;1551;51.046;7.010;2024-03-08T10:57:17;100495.91;;;20.53;nan
3082;BME280;1551;51.046;7.010;2024-03-08T11:00:07;100490.19;;;20.93;nan
3082;BME280;1551;51.046;7.010;2024-03-08T11:03:01;100487.41;;;21.42;nan
3082;BME280;1551;51.046;7.010;2024-03-08T11:05:50;100493.28;;;20.69;nan
3082;BME280;1551;51.046;7.010;2024-03-08T11:08:38;100509.56;;;20.56;nan
3082;BME280;1551;51.046;7.010;2024-03-08T11:11:31;100496.66;;;20.71;nan
3082;BME280;1551;51.046;7.010;2024-03-08T11:14:43;100491.59;;;20.99;nan
3082;BME280;1551;51.046;7.010;2024-03-08T11:20:23;100486.63;;;21.26;nan
3082;BME280;1551;51.046;7.010;2024-03-08T11:23:12;100469.03;;;21.88;nan
3082;BME280;1551;51.046;7.010;2024-03-08T11:26:01;100465.09;;;22.38;nan
3082;BME280;1551;51.046;7.010;2024-03-08T11:28:51;100454.09;;;21.76;nan
3082;BME280;1551;51.046;7.010;2024-03-08T11:31:44;100452.38;;;21.91;nan
3082;BME280;1551;51.046;7.010;2024-03-08T11:34:35;100450.47;;;21.79;nan
3082;BME280;1551;51.046;7.010;2024-03-08T11:37:24;100455.81;;;22.20;nan
3082;BME280;1551;51.046;7.010;2024-03-08T11:40:17;100445.53;;;22.86;nan
3082;BME280;1551;51.046;7.010;2024-03-08T11:43:08;100436.47;;;22.50;nan
3082;BME280;1551;51.046;7.010;2024-03-08T11:46:16;100444.00;;;22.69;nan
3082;BME280;1551;51.046;7.010;2024-03-08T11:49:06;100435.59;;;22.91;nan
3082;BME280;1551;51.046;7.010;2024-03-08T11:51:55;100437.78;;;23.63;nan
3082;BME280;1551;51.046;7.010;2024-03-08T11:54:52;100431.06;;;24.09;nan
3082;BME280;1551;51.046;7.010;2024-03-08T11:57:42;100435.47;;;24.81;nan
3082;BME280;1551;51.046;7.010;2024-03-08T12:00:32;100421.75;;;25.01;nan
3082;BME280;1551;51.046;7.010;2024-03-08T12:03:24;100417.88;;;25.75;nan
3082;BME280;1551;51.046;7.010;2024-03-08T12:06:13;100418.63;;;25.88;nan
3082;BME280;1551;51.046;7.010;2024-03-08T12:09:09;100414.63;;;25.49;nan
3082;BME280;1551;51.046;7.010;2024-03-08T12:11:59;100422.53;;;24.91;nan
3082;BME280;1551;51.046;7.010;2024-03-08T12:14:48;100414.59;;;24.32;nan
3082;BME280;1551;51.046;7.010;2024-03-08T12:17:38;100399.59;;;24.94;nan
3082;BME280;1551;51.046;7.010;2024-03-08T12:20:31;100400.72;;;24.79;nan
3082;BME280;1551;51.046;7.010;2024-03-08T12:23:20;100395.50;;;24.07;nan
3082;BME280;1551;51.046;7.010;2024-03-08T12:26:24;100388.25;;;24.46;nan
3082;BME280;1551;51.046;7.010;2024-03-08T12:29:25;100385.06;;;25.36;nan
3082;BME280;1551;51.046;7.010;2024-03-08T12:32:16;100358.34;;;25.31;nan
3082;BME280;1551;51.046;7.010;2024-03-08T12:35:07;100366.16;;;25.09;nan
3082;BME280;1551;51.046;7.010;2024-03-08T12:37:59;100360.91;;;25.09;nan
3082;BME280;1551;51.046;7.010;2024-03-08T12:40:49;100372.00;;;25.58;nan
3082;BME280;1551;51.046;7.010;2024-03-08T12:43:38;100355.41;;;24.90;nan
3082;BME280;1551;51.046;7.010;2024-03-08T12:46:27;100361.88;;;25.65;nan
3082;BME280;1551;51.046;7.010;2024-03-08T12:49:19;100351.72;;;25.93;nan
3082;BME280;1551;51.046;7.010;2024-03-08T12:52:10;100342.50;;;26.21;nan
3082;BME280;1551;51.046;7.010;2024-03-08T12:54:59;100335.50;;;25.88;nan
3082;BME280;1551;51.046;7.010;2024-03-08T12:57:55;100344.56;;;26.18;nan
3082;BME280;1551;51.046;7.010;2024-03-08T13:00:44;100345.44;;;26.39;nan
3082;BME280;1551;51.046;7.010;2024-03-08T13:03:34;100334.53;;;26.23;nan
3082;BME280;1551;51.046;7.010;2024-03-08T13:06:24;100335.00;;;26.91;nan
3082;BME280;1551;51.046;7.010;2024-03-08T13:09:13;100315.38;;;26.43;nan
3082;BME280;1551;51.046;7.010;2024-03-08T13:12:02;100318.94;;;27.15;nan
3082;BME280;1551;51.046;7.010;2024-03-08T13:14:51;100310.72;;;26.35;nan
3082;BME280;1551;51.046;7.010;2024-03-08T13:17:41;100317.69;;;26.57;nan
3082;BME280;1551;51.046;7.010;2024-03-08T13:20:31;100311.06;;;25.99;nan
3082;BME280;1551;51.046;7.010;2024-03-08T13:23:20;100303.38;;;26.07;nan
3082;BME280;1551;51.046;7.010;2024-03-08T13:26:10;100303.78;;;26.14;nan
3082;BME280;1551;51.046;7.010;2024-03-08T13:29:05;100299.94;;;26.49;nan
3082;BME280;1551;51.046;7.010;2024-03-08T13:31:55;100292.50;;;26.86;nan
3082;BME280;1551;51.046;7.010;2024-03-08T13:34:46;100287.16;;;27.18;nan
3082;BME280;1551;51.046;7.010;2024-03-08T13:37:36;100289.91;;;27.16;nan
3082;BME280;1551;51.046;7.010;2024-03-08T13:40:25;100282.34;;;27.23;nan
3082;BME280;1551;51.046;7.010;2024-03-08T13:43:14;100271.50;;;26.54;nan
3082;BME280;1551;51.046;7.010;2024-03-08T13:46:04;100265.94;;;26.48;nan
3082;BME280;1551;51.046;7.010;2024-03-08T13:48:54;100261.06;;;26.43;nan
3082;BME280;1551;51.046;7.010;2024-03-08T13:51:51;100257.56;;;25.79;nan
3082;BME280;1551;51.046;7.010;2024-03-08T13:54:40;100253.13;;;26.02;nan
3082;BME280;1551;51.046;7.010;2024-03-08T13:57:29;100246.44;;;25.55;nan
3082;BME280;1551;51.046;7.010;2024-03-08T14:00:18;100241.25;;;25.76;nan
3082;BME280;1551;51.046;7.010;2024-03-08T14:03:11;100239.34;;;26.10;nan
3082;BME280;1551;51.046;7.010;2024-03-08T14:06:01;100227.81;;;26.12;nan
3082;BME280;1551;51.046;7.010;2024-03-08T14:08:52;100226.09;;;26.63;nan
3082;BME280;1551;51.046;7.010;2024-03-08T14:11:43;100221.47;;;26.15;nan
3082;BME280;1551;51.046;7.010;2024-03-08T14:14:33;100213.44;;;25.53;nan
3082;BME280;1551;51.046;7.010;2024-03-08T14:17:24;100219.78;;;26.25;nan
3082;BME280;1551;51.046;7.010;2024-03-08T14:20:15;100200.00;;;25.78;nan
3082;BME280;1551;51.046;7.010;2024-03-08T14:23:06;100206.56;;;25.72;nan
3082;BME280;1551;51.046;7.010;2024-03-08T14:25:57;100201.34;;;25.39;nan
3082;BME280;1551;51.046;7.010;2024-03-08T14:28:47;100184.19;;;25.68;nan
3082;BME280;1551;51.046;7.010;2024-03-08T14:31:38;100199.88;;;25.79;nan
3082;BME280;1551;51.046;7.010;2024-03-08T14:34:27;100183.47;;;25.66;nan
3082;BME280;1551;51.046;7.010;2024-03-08T14:37:18;100183.16;;;25.26;nan
3082;BME280;1551;51.046;7.010;2024-03-08T14:40:12;100185.19;;;25.12;nan
3082;BME280;1551;51.046;7.010;2024-03-08T14:43:04;100187.06;;;24.66;nan
3082;BME280;1551;51.046;7.010;2024-03-08T14:45:53;100168.28;;;24.15;nan
3082;BME280;1551;51.046;7.010;2024-03-08T14:48:46;100164.09;;;23.88;nan
3082;BME280;1551;51.046;7.010;2024-03-08T14:51:35;100161.19;;;23.80;nan
3082;BME280;1551;51.046;7.010;2024-03-08T14:54:24;100142.56;;;23.61;nan
3082;BME280;1551;51.046;7.010;2024-03-08T14:57:14;100148.91;;;23.93;nan
3082;BME280;1551;51.046;7.010;2024-03-08T15:00:04;100141.44;;;23.65;nan
3082;BME280;1551;51.046;7.010;2024-03-08T15:02:55;100140.06;;;23.83;nan
3082;BME280;1551;51.046;7.010;2024-03-08T15:05:44;100139.72;;;23.28;nan
3082;BME280;1551;51.046;7.010;2024-03-08T15:08:38;100140.22;;;22.46;nan
3082;BME280;1551;51.046;7.010;2024-03-08T15:11:28;100130.31;;;23.02;nan
3082;BME280;1551;51.046;7.010;2024-03-08T15:14:18;100127.41;;;22.81;nan
3082;BME280;1551;51.046;7.010;2024-03-08T15:17:08;100132.06;;;22.13;nan
3082;BME280;1551;51.046;7.010;2024-03-08T15:20:01;100131.63;;;22.07;nan
3082;BME280;1551;51.046;7.010;2024-03-08T15:22:50;100115.03;;;21.95;nan
3082;BME280;1551;51.046;7.010;2024-03-08T15:25:43;100102.97;;;21.14;nan
3082;BME280;1551;51.046;7.010;2024-03-08T15:28:35;100107.50;;;20.96;nan
3082;BME280;1551;51.046;7.010;2024-03-08T15:31:36;100100.00;;;20.78;nan
3082;BME280;1551;51.046;7.010;2024-03-08T15:34:46;100096.38;;;20.52;nan
3082;BME280;1551;51.046;7.010;2024-03-08T15:37:35;100088.63;;;19.78;nan
3082;BME280;1551;51.046;7.010;2024-03-08T15:40:25;100094.38;;;19.83;nan
3082;BME280;1551;51.046;7.010;2024-03-08T15:43:14;100090.25;;;19.95;nan
3082;BME280;1551;51.046;7.010;2024-03-08T15:46:10;100086.16;;;19.14;nan
3082;BME280;1551;51.046;7.010;2024-03-08T15:49:00;100080.34;;;18.63;nan
3082;BME280;1551;51.046;7.010;2024-03-08T15:51:49;100081.22;;;18.46;nan